createdAt,value
2018-09-09T00:00:00.988Z,56.43
2018-09-09T00:00:32.110Z,56.42
2018-09-09T00:01:03.269Z,55.81
2018-09-09T00:01:34.393Z,56.34
2018-09-09T00:02:05.622Z,56.31
2018-09-09T00:02:36.811Z,56.34
2018-09-09T00:03:07.922Z,55.77
2018-09-09T00:03:39.122Z,55.78
2018-09-09T00:04:10.337Z,56.38
2018-09-09T00:04:41.522Z,55.55
2018-09-09T00:05:12.631Z,56.11
2018-09-09T00:05:43.804Z,56.66
2018-09-09T00:06:14.968Z,56.42
2018-09-09T00:06:46.161Z,56.39
2018-09-09T00:07:17.302Z,55.79
2018-09-09T00:07:48.413Z,55.99
2018-09-09T00:08:19.585Z,56.46
2018-09-09T00:08:50.756Z,55.91
2018-09-09T00:09:21.895Z,56.18
2018-09-09T00:09:53.009Z,55.98
2018-09-09T00:10:24.221Z,56.57
2018-09-09T00:10:55.420Z,55.78
2018-09-09T00:11:27.536Z,56.03
2018-09-09T00:11:58.703Z,56.00
2018-09-09T00:12:29.868Z,56.46
2018-09-09T00:13:01.109Z,55.69
2018-09-09T00:13:32.277Z,56.50
2018-09-09T00:14:03.427Z,56.22
2018-09-09T00:14:34.583Z,56.10
2018-09-09T00:15:05.693Z,56.23
2018-09-09T00:15:36.829Z,56.51
2018-09-09T00:16:07.992Z,55.84
2018-09-09T00:16:39.233Z,56.43
2018-09-09T00:17:10.359Z,55.73
2018-09-09T00:17:41.589Z,56.18
2018-09-09T00:18:12.820Z,55.62
2018-09-09T00:18:43.969Z,56.06
2018-09-09T00:19:15.097Z,55.73
2018-09-09T00:19:46.265Z,55.73
2018-09-09T00:20:17.385Z,55.95
2018-09-09T00:20:48.508Z,55.70
2018-09-09T00:21:19.623Z,55.54
2018-09-09T00:21:50.851Z,56.02
2018-09-09T00:22:22.083Z,55.74
2018-09-09T00:22:53.203Z,55.98
2018-09-09T00:23:24.364Z,55.22
2018-09-09T00:23:55.524Z,55.73
2018-09-09T00:24:26.632Z,55.71
2018-09-09T00:24:57.783Z,55.71
2018-09-09T00:25:28.896Z,55.63
2018-09-09T00:26:00.013Z,55.80
2018-09-09T00:26:31.196Z,55.75
2018-09-09T00:27:02.308Z,56.20
2018-09-09T00:27:33.513Z,56.41
2018-09-09T00:28:04.636Z,56.11
2018-09-09T00:28:35.769Z,55.96
2018-09-09T00:29:06.982Z,56.55
2018-09-09T00:29:38.109Z,56.53
2018-09-09T00:30:09.296Z,55.87
2018-09-09T00:30:40.415Z,56.22
2018-09-09T00:31:11.584Z,56.14
2018-09-09T00:31:42.764Z,55.98
2018-09-09T00:32:13.889Z,55.90
2018-09-09T00:32:45.111Z,56.57
2018-09-09T00:33:17.127Z,55.77
2018-09-09T00:33:48.243Z,56.69
2018-09-09T00:34:19.504Z,55.96
2018-09-09T00:34:50.620Z,56.39
2018-09-09T00:35:21.732Z,56.35
2018-09-09T00:35:52.905Z,56.82
2018-09-09T00:36:24.077Z,56.11
2018-09-09T00:36:55.260Z,57.06
2018-09-09T00:37:26.376Z,56.43
2018-09-09T00:37:57.495Z,56.44
2018-09-09T00:38:28.621Z,57.27
2018-09-09T00:38:59.810Z,57.35
2018-09-09T00:39:30.956Z,56.41
2018-09-09T00:40:02.068Z,56.91
2018-09-09T00:40:33.296Z,56.58
2018-09-09T00:41:04.469Z,56.89
2018-09-09T00:41:35.645Z,56.22
2018-09-09T00:42:06.816Z,56.09
2018-09-09T00:42:37.984Z,56.44
2018-09-09T00:43:09.165Z,56.43
2018-09-09T00:43:40.328Z,56.35
2018-09-09T00:44:11.554Z,56.83
2018-09-09T00:44:42.675Z,56.85
2018-09-09T00:45:13.803Z,56.15
2018-09-09T00:45:44.992Z,56.34
2018-09-09T00:46:16.188Z,57.12
2018-09-09T00:46:47.308Z,57.18
2018-09-09T00:47:18.464Z,57.23
2018-09-09T00:47:49.582Z,56.83
2018-09-09T00:48:20.755Z,57.26
2018-09-09T00:48:51.899Z,57.40
2018-09-09T00:49:23.127Z,56.89
2018-09-09T00:49:54.314Z,57.54
2018-09-09T00:50:25.430Z,57.63
2018-09-09T00:50:56.656Z,57.46
2018-09-09T00:51:27.811Z,57.70
2018-09-09T00:51:58.977Z,57.63
2018-09-09T00:52:30.111Z,57.62
2018-09-09T00:53:01.280Z,57.69
2018-09-09T00:53:32.388Z,57.38
2018-09-09T00:54:03.564Z,57.32
2018-09-09T00:54:34.726Z,57.09
2018-09-09T00:55:05.868Z,56.87
2018-09-09T00:55:37.043Z,57.04
2018-09-09T00:56:08.218Z,57.45
2018-09-09T00:56:39.344Z,57.18
2018-09-09T00:57:10.460Z,56.91
2018-09-09T00:57:41.594Z,57.12
2018-09-09T00:58:12.766Z,57.09
2018-09-09T00:58:43.939Z,57.25
2018-09-09T00:59:15.169Z,57.32
2018-09-09T00:59:46.377Z,56.68
2018-09-09T01:00:17.505Z,57.36
2018-09-09T01:00:48.669Z,57.21
2018-09-09T01:01:19.789Z,57.54
2018-09-09T01:01:50.966Z,57.44
2018-09-09T01:02:22.146Z,57.30
2018-09-09T01:02:53.283Z,57.07
2018-09-09T01:03:24.456Z,57.65
2018-09-09T01:03:55.572Z,57.45
2018-09-09T01:04:26.929Z,58.18
2018-09-09T01:04:58.100Z,57.49
2018-09-09T01:05:29.289Z,58.40
2018-09-09T01:06:00.398Z,58.40
2018-09-09T01:06:31.510Z,58.61
2018-09-09T01:07:02.640Z,58.13
2018-09-09T01:07:33.753Z,58.61
2018-09-09T01:08:04.881Z,58.55
2018-09-09T01:08:36.056Z,58.04
2018-09-09T01:09:07.226Z,58.06
2018-09-09T01:09:38.428Z,58.73
2018-09-09T01:10:09.535Z,58.49
2018-09-09T01:10:40.704Z,58.57
2018-09-09T01:11:11.932Z,58.18
2018-09-09T01:11:43.062Z,58.69
2018-09-09T01:12:14.295Z,58.85
2018-09-09T01:12:45.476Z,58.16
2018-09-09T01:13:16.652Z,58.22
2018-09-09T01:13:47.832Z,58.57
2018-09-09T01:14:18.955Z,58.21
2018-09-09T01:14:50.103Z,58.82
2018-09-09T01:15:21.279Z,58.27
2018-09-09T01:15:52.485Z,58.09
2018-09-09T01:16:23.597Z,58.22
2018-09-09T01:16:54.773Z,58.22
2018-09-09T01:17:25.887Z,58.16
2018-09-09T01:17:57.049Z,58.70
2018-09-09T01:18:28.183Z,58.13
2018-09-09T01:18:59.868Z,58.77
2018-09-09T01:19:30.969Z,58.79
2018-09-09T01:20:02.116Z,58.46
2018-09-09T01:20:33.279Z,59.03
2018-09-09T01:21:04.562Z,58.78
2018-09-09T01:21:35.789Z,58.69
2018-09-09T01:22:06.958Z,58.73
2018-09-09T01:22:38.073Z,59.24
2018-09-09T01:23:09.197Z,59.28
2018-09-09T01:23:40.376Z,59.37
2018-09-09T01:24:11.612Z,59.56
2018-09-09T01:24:42.731Z,58.89
2018-09-09T01:25:13.952Z,58.85
2018-09-09T01:25:45.132Z,59.37
2018-09-09T01:26:16.280Z,58.85
2018-09-09T01:26:47.429Z,59.44
2018-09-09T01:27:18.588Z,59.58
2018-09-09T01:27:49.770Z,59.08
2018-09-09T01:28:20.883Z,59.51
2018-09-09T01:28:52.048Z,58.98
2018-09-09T01:29:23.167Z,59.02
2018-09-09T01:29:54.289Z,59.54
2018-09-09T01:30:25.457Z,59.63
2018-09-09T01:30:56.628Z,58.95
2018-09-09T01:31:27.820Z,59.25
2018-09-09T01:31:59.034Z,59.53
2018-09-09T01:32:30.190Z,59.96
2018-09-09T01:33:01.412Z,58.95
2018-09-09T01:33:32.628Z,59.48
2018-09-09T01:34:03.808Z,59.81
2018-09-09T01:34:35.041Z,59.62
2018-09-09T01:35:06.221Z,59.46
2018-09-09T01:35:37.386Z,59.73
2018-09-09T01:36:08.561Z,59.24
2018-09-09T01:36:39.699Z,59.88
2018-09-09T01:37:10.888Z,59.91
2018-09-09T01:37:42.010Z,59.70
2018-09-09T01:38:13.234Z,59.31
2018-09-09T01:38:44.511Z,60.06
2018-09-09T01:39:15.628Z,59.70
2018-09-09T01:39:46.735Z,59.63
2018-09-09T01:40:17.859Z,59.49
2018-09-09T01:40:49.024Z,60.04
2018-09-09T01:41:20.201Z,60.13
2018-09-09T01:41:51.415Z,59.80
2018-09-09T01:42:22.535Z,59.79
2018-09-09T01:42:53.652Z,59.70
2018-09-09T01:43:24.764Z,60.32
2018-09-09T01:43:55.869Z,59.75
2018-09-09T01:44:27.109Z,60.48
2018-09-09T01:44:58.277Z,60.40
2018-09-09T01:45:29.489Z,60.19
2018-09-09T01:46:00.612Z,59.76
2018-09-09T01:46:31.735Z,59.71
2018-09-09T01:47:02.861Z,59.99
2018-09-09T01:47:34.031Z,60.51
2018-09-09T01:48:05.195Z,59.63
2018-09-09T01:48:36.373Z,59.78
2018-09-09T01:49:07.570Z,60.41
2018-09-09T01:49:38.749Z,60.41
2018-09-09T01:50:09.870Z,60.39
2018-09-09T01:50:41.081Z,60.39
2018-09-09T01:51:12.346Z,59.91
2018-09-09T01:51:43.587Z,59.55
2018-09-09T01:52:14.729Z,60.22
2018-09-09T01:52:45.848Z,60.22
2018-09-09T01:53:17.019Z,60.25
2018-09-09T01:53:48.128Z,60.35
2018-09-09T01:54:19.300Z,60.21
2018-09-09T01:54:50.494Z,59.80
2018-09-09T01:55:21.665Z,60.28
2018-09-09T01:55:52.912Z,60.28
2018-09-09T01:56:24.117Z,60.72
2018-09-09T01:56:55.272Z,59.78
2018-09-09T01:57:26.467Z,60.00
2018-09-09T01:57:57.645Z,60.39
2018-09-09T01:58:28.812Z,60.30
2018-09-09T01:59:00.041Z,60.64
2018-09-09T01:59:31.164Z,60.16
2018-09-09T02:00:02.348Z,60.61
2018-09-09T02:00:33.452Z,60.84
2018-09-09T02:01:04.682Z,60.55
2018-09-09T02:01:35.810Z,60.00
2018-09-09T02:02:06.966Z,60.31
2018-09-09T02:02:38.129Z,60.44
2018-09-09T02:03:09.263Z,60.03
2018-09-09T02:03:40.374Z,60.01
2018-09-09T02:04:11.537Z,60.26
2018-09-09T02:04:42.700Z,60.56
2018-09-09T02:05:13.881Z,60.45
2018-09-09T02:05:45.065Z,59.89
2018-09-09T02:06:16.235Z,60.26
2018-09-09T02:06:47.354Z,60.11
2018-09-09T02:07:18.524Z,59.76
2018-09-09T02:07:49.648Z,59.68
2018-09-09T02:08:20.795Z,59.35
2018-09-09T02:08:51.904Z,59.49
2018-09-09T02:09:23.081Z,59.69
2018-09-09T02:09:54.205Z,59.45
2018-09-09T02:10:25.425Z,60.23
2018-09-09T02:10:56.565Z,59.89
2018-09-09T02:11:27.681Z,59.77
2018-09-09T02:11:58.791Z,59.21
2018-09-09T02:12:29.961Z,59.36
2018-09-09T02:13:01.128Z,59.93
2018-09-09T02:13:32.298Z,59.74
2018-09-09T02:14:03.414Z,59.89
2018-09-09T02:14:34.532Z,59.17
2018-09-09T02:15:05.683Z,59.84
2018-09-09T02:15:36.854Z,59.26
2018-09-09T02:16:07.991Z,59.47
2018-09-09T02:16:39.104Z,59.75
2018-09-09T02:17:10.285Z,59.12
2018-09-09T02:17:41.443Z,59.03
2018-09-09T02:18:12.606Z,59.76
2018-09-09T02:18:43.800Z,58.83
2018-09-09T02:19:14.917Z,58.92
2018-09-09T02:19:46.077Z,58.86
2018-09-09T02:20:17.257Z,59.44
2018-09-09T02:20:48.379Z,59.38
2018-09-09T02:21:19.579Z,59.26
2018-09-09T02:21:50.692Z,58.89
2018-09-09T02:22:21.797Z,59.28
2018-09-09T02:22:53.013Z,58.85
2018-09-09T02:23:24.119Z,59.13
2018-09-09T02:23:55.303Z,58.90
2018-09-09T02:24:26.463Z,58.85
2018-09-09T02:24:57.584Z,58.52
2018-09-09T02:25:28.764Z,58.80
2018-09-09T02:25:59.988Z,59.29
2018-09-09T02:26:31.184Z,58.56
2018-09-09T02:27:02.300Z,59.03
2018-09-09T02:27:33.459Z,58.95
2018-09-09T02:28:04.676Z,58.36
2018-09-09T02:28:35.825Z,59.06
2018-09-09T02:29:06.987Z,58.40
2018-09-09T02:29:38.108Z,58.41
2018-09-09T02:30:09.228Z,59.05
2018-09-09T02:30:40.357Z,59.09
2018-09-09T02:31:11.464Z,58.44
2018-09-09T02:31:42.679Z,58.44
2018-09-09T02:32:13.842Z,58.96
2018-09-09T02:32:45.063Z,58.43
2018-09-09T02:33:16.171Z,58.57
2018-09-09T02:33:47.397Z,59.13
2018-09-09T02:34:18.577Z,58.56
2018-09-09T02:34:49.755Z,58.77
2018-09-09T02:35:20.931Z,58.77
2018-09-09T02:35:52.065Z,58.75
2018-09-09T02:36:23.186Z,58.93
2018-09-09T02:36:54.457Z,59.28
2018-09-09T02:37:25.636Z,59.21
2018-09-09T02:37:56.767Z,58.58
2018-09-09T02:38:27.950Z,58.87
2018-09-09T02:38:59.064Z,59.43
2018-09-09T02:39:30.224Z,58.76
2018-09-09T02:40:01.343Z,58.90
2018-09-09T02:40:32.459Z,58.85
2018-09-09T02:41:03.638Z,58.53
2018-09-09T02:41:34.761Z,58.54
2018-09-09T02:42:05.980Z,58.08
2018-09-09T02:42:37.180Z,58.69
2018-09-09T02:43:08.413Z,57.94
2018-09-09T02:43:39.838Z,57.95
2018-09-09T02:44:11.357Z,57.88
2018-09-09T02:44:42.541Z,57.90
2018-09-09T02:45:13.652Z,58.55
2018-09-09T02:45:44.879Z,58.62
2018-09-09T02:46:16.062Z,58.15
2018-09-09T02:46:47.186Z,58.93
2018-09-09T02:47:18.421Z,58.40
2018-09-09T02:47:49.633Z,59.02
2018-09-09T02:48:20.817Z,58.60
2018-09-09T02:48:51.927Z,58.79
2018-09-09T02:49:23.101Z,59.03
2018-09-09T02:49:54.220Z,58.75
2018-09-09T02:50:25.376Z,58.58
2018-09-09T02:50:56.492Z,58.65
2018-09-09T02:51:27.613Z,58.70
2018-09-09T02:51:58.779Z,59.04
2018-09-09T02:52:29.980Z,58.78
2018-09-09T02:53:01.105Z,59.37
2018-09-09T02:53:32.216Z,59.95
2018-09-09T02:54:03.382Z,59.03
2018-09-09T02:54:34.541Z,59.55
2018-09-09T02:55:05.729Z,59.45
2018-09-09T02:55:36.861Z,59.86
2018-09-09T02:56:08.008Z,59.90
2018-09-09T02:56:39.175Z,59.88
2018-09-09T02:57:10.352Z,59.22
2018-09-09T02:57:41.538Z,59.96
2018-09-09T02:58:12.753Z,60.06
2018-09-09T02:58:43.864Z,59.44
2018-09-09T02:59:15.038Z,59.82
2018-09-09T02:59:46.199Z,59.55
2018-09-09T03:00:17.330Z,60.05
2018-09-09T03:00:48.496Z,59.15
2018-09-09T03:01:19.669Z,59.98
2018-09-09T03:01:50.840Z,59.96
2018-09-09T03:02:21.961Z,60.08
2018-09-09T03:02:53.086Z,59.60
2018-09-09T03:03:24.200Z,60.25
2018-09-09T03:03:55.312Z,60.35
2018-09-09T03:04:26.428Z,59.77
2018-09-09T03:04:57.592Z,60.05
2018-09-09T03:05:28.723Z,60.79
2018-09-09T03:05:59.841Z,60.20
2018-09-09T03:06:31.072Z,59.96
2018-09-09T03:07:02.246Z,60.25
2018-09-09T03:07:33.486Z,60.13
2018-09-09T03:08:04.696Z,60.87
2018-09-09T03:08:35.872Z,60.08
2018-09-09T03:09:07.049Z,61.04
2018-09-09T03:09:38.167Z,60.98
2018-09-09T03:10:09.309Z,60.50
2018-09-09T03:10:40.429Z,60.80
2018-09-09T03:11:11.652Z,60.30
2018-09-09T03:11:42.772Z,60.58
2018-09-09T03:12:13.928Z,60.25
2018-09-09T03:12:45.043Z,60.11
2018-09-09T03:13:16.212Z,60.92
2018-09-09T03:13:47.394Z,60.98
2018-09-09T03:14:18.564Z,60.28
2018-09-09T03:14:49.813Z,60.28
2018-09-09T03:15:20.994Z,60.58
2018-09-09T03:15:52.169Z,60.64
2018-09-09T03:16:23.340Z,60.01
2018-09-09T03:16:54.508Z,60.75
2018-09-09T03:17:25.620Z,60.71
2018-09-09T03:17:56.736Z,59.95
2018-09-09T03:18:27.956Z,59.98
2018-09-09T03:18:59.129Z,59.82
2018-09-09T03:19:30.248Z,60.11
2018-09-09T03:20:01.420Z,59.83
2018-09-09T03:20:32.644Z,60.38
2018-09-09T03:21:03.824Z,60.06
2018-09-09T03:21:34.960Z,59.77
2018-09-09T03:22:06.080Z,60.05
2018-09-09T03:22:37.262Z,60.15
2018-09-09T03:23:08.448Z,60.51
2018-09-09T03:23:39.693Z,60.78
2018-09-09T03:24:10.868Z,60.16
2018-09-09T03:24:42.099Z,60.24
2018-09-09T03:25:13.276Z,60.16
2018-09-09T03:25:44.396Z,60.12
2018-09-09T03:26:15.578Z,60.82
2018-09-09T03:26:46.776Z,61.01
2018-09-09T03:27:17.883Z,60.31
2018-09-09T03:27:49.001Z,60.54
2018-09-09T03:28:20.197Z,61.07
2018-09-09T03:28:51.413Z,60.86
2018-09-09T03:29:22.512Z,60.28
2018-09-09T03:29:53.688Z,61.19
2018-09-09T03:30:24.813Z,60.36
2018-09-09T03:30:55.936Z,60.24
2018-09-09T03:31:27.058Z,60.11
2018-09-09T03:31:58.279Z,60.09
2018-09-09T03:32:29.460Z,59.75
2018-09-09T03:33:00.581Z,60.10
2018-09-09T03:33:31.835Z,60.31
2018-09-09T03:34:02.987Z,60.09
2018-09-09T03:34:34.100Z,59.93
2018-09-09T03:35:05.306Z,60.23
2018-09-09T03:35:36.480Z,60.43
2018-09-09T03:36:07.668Z,60.05
2018-09-09T03:36:38.803Z,59.66
2018-09-09T03:37:09.996Z,59.82
2018-09-09T03:37:41.244Z,60.17
2018-09-09T03:38:12.418Z,60.02
2018-09-09T03:38:43.589Z,59.74
2018-09-09T03:39:14.778Z,60.00
2018-09-09T03:39:45.910Z,60.70
2018-09-09T03:40:17.099Z,60.64
2018-09-09T03:40:48.215Z,60.67
2018-09-09T03:41:19.339Z,60.81
2018-09-09T03:41:50.529Z,60.92
2018-09-09T03:42:21.701Z,60.80
2018-09-09T03:42:52.909Z,60.45
2018-09-09T03:43:24.145Z,60.01
2018-09-09T03:43:55.306Z,60.00
2018-09-09T03:44:26.435Z,60.41
2018-09-09T03:44:57.617Z,60.63
2018-09-09T03:45:28.792Z,59.96
2018-09-09T03:45:59.972Z,60.01
2018-09-09T03:46:31.177Z,60.49
2018-09-09T03:47:02.293Z,60.36
2018-09-09T03:47:33.496Z,60.03
2018-09-09T03:48:04.669Z,60.23
2018-09-09T03:48:35.803Z,60.46
2018-09-09T03:49:06.984Z,60.43
2018-09-09T03:49:38.111Z,59.88
2018-09-09T03:50:09.290Z,59.92
2018-09-09T03:50:40.436Z,60.10
2018-09-09T03:51:11.613Z,59.71
2018-09-09T03:51:42.848Z,59.57
2018-09-09T03:52:14.037Z,60.11
2018-09-09T03:52:45.219Z,59.50
2018-09-09T03:53:16.335Z,59.98
2018-09-09T03:53:47.513Z,60.26
2018-09-09T03:54:18.640Z,60.14
2018-09-09T03:54:49.759Z,60.04
2018-09-09T03:55:20.879Z,60.01
2018-09-09T03:55:51.998Z,59.55
2018-09-09T03:56:23.225Z,59.36
2018-09-09T03:56:54.349Z,59.36
2018-09-09T03:57:25.476Z,59.35
2018-09-09T03:57:56.590Z,59.17
2018-09-09T03:58:27.800Z,59.18
2018-09-09T03:58:58.912Z,60.17
2018-09-09T03:59:30.133Z,60.00
2018-09-09T04:00:01.377Z,59.78
2018-09-09T04:00:32.548Z,58.91
2018-09-09T04:01:03.678Z,58.98
2018-09-09T04:01:34.791Z,59.03
2018-09-09T04:02:05.916Z,59.01
2018-09-09T04:02:37.039Z,59.36
2018-09-09T04:03:08.315Z,58.82
2018-09-09T04:03:39.497Z,59.46
2018-09-09T04:04:10.684Z,59.25
2018-09-09T04:04:41.855Z,59.48
2018-09-09T04:05:12.963Z,59.38
2018-09-09T04:05:44.204Z,59.60
2018-09-09T04:06:15.399Z,59.71
2018-09-09T04:06:46.563Z,59.49
2018-09-09T04:07:17.729Z,59.76
2018-09-09T04:07:48.972Z,59.12
2018-09-09T04:08:20.157Z,58.87
2018-09-09T04:08:51.363Z,58.85
2018-09-09T04:09:22.500Z,58.18
2018-09-09T04:09:53.634Z,58.21
2018-09-09T04:10:24.817Z,58.32
2018-09-09T04:10:56.037Z,58.55
2018-09-09T04:11:27.245Z,58.19
2018-09-09T04:11:58.417Z,57.68
2018-09-09T04:12:29.551Z,58.15
2018-09-09T04:13:00.733Z,57.25
2018-09-09T04:13:31.906Z,57.79
2018-09-09T04:14:03.068Z,58.15
2018-09-09T04:14:34.303Z,58.19
2018-09-09T04:15:05.498Z,57.87
2018-09-09T04:15:36.737Z,58.13
2018-09-09T04:16:07.971Z,57.17
2018-09-09T04:16:39.145Z,56.98
2018-09-09T04:17:10.348Z,57.21
2018-09-09T04:17:41.466Z,56.40
2018-09-09T04:18:12.579Z,56.65
2018-09-09T04:18:43.740Z,55.75
2018-09-09T04:19:14.952Z,55.63
2018-09-09T04:19:46.078Z,55.35
2018-09-09T04:20:17.241Z,55.73
2018-09-09T04:20:48.470Z,55.35
2018-09-09T04:21:19.693Z,54.64
2018-09-09T04:21:50.936Z,54.51
2018-09-09T04:22:22.052Z,54.17
2018-09-09T04:22:53.223Z,53.84
2018-09-09T04:23:24.392Z,53.72
2018-09-09T04:23:55.503Z,53.84
2018-09-09T04:24:26.610Z,53.27
2018-09-09T04:24:57.726Z,52.91
2018-09-09T04:25:28.833Z,53.03
2018-09-09T04:25:59.988Z,52.83
2018-09-09T04:26:31.104Z,52.84
2018-09-09T04:27:02.211Z,53.32
2018-09-09T04:27:33.401Z,52.27
2018-09-09T04:28:04.574Z,52.95
2018-09-09T04:28:35.745Z,52.31
2018-09-09T04:29:06.926Z,52.13
2018-09-09T04:29:38.040Z,52.15
2018-09-09T04:30:09.213Z,51.55
2018-09-09T04:30:40.394Z,51.99
2018-09-09T04:31:11.633Z,51.93
2018-09-09T04:31:42.867Z,51.09
2018-09-09T04:32:13.976Z,51.46
2018-09-09T04:32:45.136Z,50.80
2018-09-09T04:33:16.256Z,50.72
2018-09-09T04:33:47.369Z,50.85
2018-09-09T04:34:18.540Z,50.46
2018-09-09T04:34:49.720Z,50.77
2018-09-09T04:35:20.900Z,50.00
2018-09-09T04:35:52.019Z,50.68
2018-09-09T04:36:23.223Z,50.23
2018-09-09T04:36:54.408Z,49.46
2018-09-09T04:37:25.535Z,49.90
2018-09-09T04:37:56.697Z,49.76
2018-09-09T04:38:27.817Z,49.23
2018-09-09T04:38:58.928Z,49.38
2018-09-09T04:39:30.136Z,48.34
2018-09-09T04:40:01.259Z,48.17
2018-09-09T04:40:32.364Z,48.45
2018-09-09T04:41:03.576Z,48.33
2018-09-09T04:41:34.748Z,47.93
2018-09-09T04:42:05.936Z,47.89
2018-09-09T04:42:37.097Z,47.40
2018-09-09T04:43:08.212Z,47.59
2018-09-09T04:43:39.327Z,47.66
2018-09-09T04:44:10.590Z,47.62
2018-09-09T04:44:41.744Z,47.44
2018-09-09T04:45:12.912Z,47.04
2018-09-09T04:45:44.084Z,47.63
2018-09-09T04:46:15.309Z,47.37
2018-09-09T04:46:46.469Z,47.21
2018-09-09T04:47:17.600Z,47.04
2018-09-09T04:47:48.773Z,47.70
2018-09-09T04:48:19.989Z,47.70
2018-09-09T04:48:51.223Z,46.92
2018-09-09T04:49:22.392Z,47.40
2018-09-09T04:49:53.507Z,47.02
2018-09-09T04:50:24.730Z,46.80
2018-09-09T04:50:55.932Z,47.32
2018-09-09T04:51:27.108Z,46.81
2018-09-09T04:51:58.229Z,47.04
2018-09-09T04:52:29.412Z,47.46
2018-09-09T04:53:00.592Z,46.85
2018-09-09T04:53:31.757Z,46.49
2018-09-09T04:54:02.940Z,47.12
2018-09-09T04:54:34.146Z,47.10
2018-09-09T04:55:05.308Z,46.85
2018-09-09T04:55:36.424Z,47.61
2018-09-09T04:56:07.584Z,47.49
2018-09-09T04:56:38.762Z,47.69
2018-09-09T04:57:09.931Z,46.89
2018-09-09T04:57:41.069Z,46.45
2018-09-09T04:58:12.182Z,47.47
2018-09-09T04:58:43.345Z,46.96
2018-09-09T04:59:14.565Z,46.58
2018-09-09T04:59:46.349Z,47.05
2018-09-09T05:00:17.560Z,47.59
2018-09-09T05:00:48.693Z,47.69
2018-09-09T05:01:19.909Z,47.13
2018-09-09T05:01:50.946Z,47.10
2018-09-09T05:02:22.114Z,47.23
2018-09-09T05:02:53.236Z,47.47
2018-09-09T05:03:24.425Z,47.05
2018-09-09T05:03:55.601Z,47.41
2018-09-09T05:04:26.801Z,47.01
2018-09-09T05:04:57.928Z,46.79
2018-09-09T05:05:29.126Z,46.83
2018-09-09T05:06:00.306Z,46.71
2018-09-09T05:06:31.429Z,46.35
2018-09-09T05:07:02.656Z,46.53
2018-09-09T05:07:33.780Z,46.76
2018-09-09T05:08:04.954Z,46.41
2018-09-09T05:08:36.079Z,47.28
2018-09-09T05:09:07.242Z,46.51
2018-09-09T05:09:38.421Z,47.16
2018-09-09T05:10:09.596Z,46.77
2018-09-09T05:10:40.749Z,46.14
2018-09-09T05:11:11.917Z,46.45
2018-09-09T05:11:43.037Z,46.16
2018-09-09T05:12:14.150Z,46.20
2018-09-09T05:12:45.278Z,45.93
2018-09-09T05:13:16.446Z,45.60
2018-09-09T05:13:47.628Z,46.02
2018-09-09T05:14:18.749Z,45.48
2018-09-09T05:14:49.865Z,45.24
2018-09-09T05:15:21.044Z,45.94
2018-09-09T05:15:52.268Z,45.88
2018-09-09T05:16:23.373Z,44.85
2018-09-09T05:16:54.495Z,44.66
2018-09-09T05:17:25.661Z,45.30
2018-09-09T05:17:56.782Z,44.10
2018-09-09T05:18:27.969Z,45.15
2018-09-09T05:18:59.116Z,45.34
2018-09-09T05:19:30.284Z,44.58
2018-09-09T05:20:01.643Z,45.17
2018-09-09T05:20:32.838Z,45.05
2018-09-09T05:21:04.003Z,44.36
2018-09-09T05:21:35.173Z,45.31
2018-09-09T05:22:06.415Z,45.72
2018-09-09T05:22:37.649Z,45.66
2018-09-09T05:23:08.834Z,45.83
2018-09-09T05:23:39.973Z,46.39
2018-09-09T05:24:11.138Z,46.76
2018-09-09T05:24:42.313Z,45.95
2018-09-09T05:25:13.432Z,46.13
2018-09-09T05:25:45.209Z,45.92
2018-09-09T05:26:16.396Z,46.09
2018-09-09T05:26:47.504Z,46.32
2018-09-09T05:27:18.666Z,45.70
2018-09-09T05:27:49.880Z,46.44
2018-09-09T05:28:21.062Z,46.17
2018-09-09T05:28:52.223Z,47.29
2018-09-09T05:29:23.409Z,46.83
2018-09-09T05:29:54.594Z,46.52
2018-09-09T05:30:25.823Z,46.92
2018-09-09T05:30:56.948Z,47.19
2018-09-09T05:31:28.194Z,46.75
2018-09-09T05:31:59.368Z,46.92
2018-09-09T05:32:30.582Z,47.22
2018-09-09T05:33:01.698Z,47.17
2018-09-09T05:33:32.846Z,47.39
2018-09-09T05:34:04.064Z,46.80
2018-09-09T05:34:35.274Z,47.08
2018-09-09T05:35:06.396Z,46.35
2018-09-09T05:35:37.619Z,47.37
2018-09-09T05:36:08.794Z,47.13
2018-09-09T05:36:39.923Z,46.07
2018-09-09T05:37:11.163Z,47.02
2018-09-09T05:37:42.344Z,46.23
2018-09-09T05:38:13.521Z,46.49
2018-09-09T05:38:44.831Z,45.83
2018-09-09T05:39:16.612Z,46.59
2018-09-09T05:39:47.731Z,46.55
2018-09-09T05:40:18.852Z,46.38
2018-09-09T05:40:49.959Z,46.54
2018-09-09T05:41:21.077Z,46.66
2018-09-09T05:41:52.188Z,46.73
2018-09-09T05:42:23.449Z,46.72
2018-09-09T05:42:54.557Z,46.61
2018-09-09T05:43:25.726Z,46.32
2018-09-09T05:43:56.933Z,46.78
2018-09-09T05:44:28.108Z,46.75
2018-09-09T05:44:59.295Z,46.39
2018-09-09T05:45:30.480Z,45.55
2018-09-09T05:46:01.652Z,45.86
2018-09-09T05:46:32.861Z,46.20
2018-09-09T05:47:03.972Z,45.39
2018-09-09T05:47:35.087Z,46.14
2018-09-09T05:48:06.254Z,44.98
2018-09-09T05:48:37.389Z,45.89
2018-09-09T05:49:08.592Z,46.05
2018-09-09T05:49:39.772Z,45.93
2018-09-09T05:50:10.890Z,45.28
2018-09-09T05:50:42.125Z,45.07
2018-09-09T05:51:13.316Z,44.97
2018-09-09T05:51:44.533Z,44.92
2018-09-09T05:52:15.658Z,45.01
2018-09-09T05:52:46.775Z,45.78
2018-09-09T05:53:17.953Z,45.49
2018-09-09T05:53:49.137Z,45.65
2018-09-09T05:54:20.258Z,46.63
2018-09-09T05:54:51.371Z,46.43
2018-09-09T05:55:22.551Z,46.15
2018-09-09T05:55:53.730Z,45.90
2018-09-09T05:56:24.844Z,45.52
2018-09-09T05:56:56.110Z,46.13
2018-09-09T05:57:27.312Z,45.24
2018-09-09T05:57:58.519Z,45.94
2018-09-09T05:58:29.673Z,44.86
2018-09-09T05:59:00.840Z,45.82
2018-09-09T05:59:32.090Z,45.45
2018-09-09T06:00:03.216Z,44.71
2018-09-09T06:00:34.340Z,45.23
2018-09-09T06:01:05.513Z,44.91
2018-09-09T06:01:36.744Z,44.14
2018-09-09T06:02:07.931Z,45.09
2018-09-09T06:02:39.095Z,45.07
2018-09-09T06:03:10.329Z,44.56
2018-09-09T06:03:41.513Z,44.69
2018-09-09T06:04:12.681Z,45.44
2018-09-09T06:04:43.921Z,45.15
2018-09-09T06:05:15.113Z,44.91
2018-09-09T06:05:46.277Z,45.50
2018-09-09T06:06:17.502Z,45.36
2018-09-09T06:06:48.625Z,45.22
2018-09-09T06:07:19.755Z,45.07
2018-09-09T06:07:50.877Z,45.16
2018-09-09T06:08:22.094Z,44.09
2018-09-09T06:08:53.203Z,44.87
2018-09-09T06:09:24.404Z,43.96
2018-09-09T06:09:55.527Z,44.23
2018-09-09T06:10:26.708Z,45.16
2018-09-09T06:10:57.893Z,44.67
2018-09-09T06:11:29.059Z,44.36
2018-09-09T06:12:00.232Z,44.39
2018-09-09T06:12:31.368Z,44.33
2018-09-09T06:13:02.481Z,44.43
2018-09-09T06:13:33.599Z,44.58
2018-09-09T06:14:04.783Z,44.52
2018-09-09T06:14:35.940Z,45.18
2018-09-09T06:15:07.173Z,45.26
2018-09-09T06:15:38.296Z,44.69
2018-09-09T06:16:09.481Z,44.84
2018-09-09T06:16:40.712Z,45.10
2018-09-09T06:17:11.893Z,44.67
2018-09-09T06:17:43.080Z,44.68
2018-09-09T06:18:14.255Z,44.15
2018-09-09T06:18:45.424Z,44.38
2018-09-09T06:19:16.618Z,44.40
2018-09-09T06:19:47.824Z,45.01
2018-09-09T06:20:18.993Z,44.62
2018-09-09T06:20:50.175Z,44.67
2018-09-09T06:21:21.309Z,44.02
2018-09-09T06:21:52.441Z,45.18
2018-09-09T06:22:23.669Z,44.78
2018-09-09T06:22:54.844Z,44.11
2018-09-09T06:23:26.023Z,44.37
2018-09-09T06:23:57.156Z,44.23
2018-09-09T06:24:28.277Z,43.82
2018-09-09T06:24:59.403Z,43.37
2018-09-09T06:25:30.648Z,43.56
2018-09-09T06:26:01.820Z,42.88
2018-09-09T06:26:32.951Z,42.89
2018-09-09T06:27:04.077Z,43.30
2018-09-09T06:27:35.198Z,43.35
2018-09-09T06:28:06.391Z,43.50
2018-09-09T06:28:37.500Z,43.25
2018-09-09T06:29:08.624Z,44.19
2018-09-09T06:29:39.751Z,43.27
2018-09-09T06:30:10.972Z,43.95
2018-09-09T06:30:42.144Z,44.52
2018-09-09T06:31:13.385Z,44.46
2018-09-09T06:31:44.574Z,43.57
2018-09-09T06:32:15.807Z,44.22
2018-09-09T06:32:46.988Z,44.16
2018-09-09T06:33:18.236Z,43.42
2018-09-09T06:33:49.450Z,43.12
2018-09-09T06:34:20.571Z,43.04
2018-09-09T06:34:51.684Z,44.23
2018-09-09T06:35:22.822Z,43.23
2018-09-09T06:35:53.956Z,43.82
2018-09-09T06:36:25.134Z,43.94
2018-09-09T06:36:56.305Z,43.81
2018-09-09T06:37:27.440Z,43.27
2018-09-09T06:37:58.612Z,42.98
2018-09-09T06:38:29.859Z,42.69
2018-09-09T06:39:01.082Z,42.74
2018-09-09T06:39:32.253Z,43.33
2018-09-09T06:40:03.368Z,42.89
2018-09-09T06:40:34.544Z,43.57
2018-09-09T06:41:05.663Z,43.26